sensor_id;sensor_type;location;lat;lon;timestamp;pressure;altitude;pressure_sealevel;temperature;humidity
64053;BME280;50299;49.524;8.536;2023-01-26T00:01:49;101232.91;;;0.36;95.85
64053;BME280;50299;49.524;8.536;2023-01-26T00:04:19;101232.75;;;0.03;90.26
64053;BME280;50299;49.524;8.536;2023-01-26T00:06:48;101242.16;;;-0.40;86.10
64053;BME280;50299;49.524;8.536;2023-01-26T00:09:17;101232.59;;;-0.66;86.42
64053;BME280;50299;49.524;8.536;2023-01-26T00:11:43;101233.25;;;-0.71;88.80
64053;BME280;50299;49.524;8.536;2023-01-26T00:14:10;101239.41;;;-0.75;87.21
64053;BME280;50299;49.524;8.536;2023-01-26T00:16:36;101232.00;;;-1.10;87.79
64053;BME280;50299;49.524;8.536;2023-01-26T00:19:03;101231.38;;;-1.12;90.24
64053;BME280;50299;49.524;8.536;2023-01-26T00:21:30;101232.78;;;-0.80;90.50
64053;BME280;50299;49.524;8.536;2023-01-26T00:23:57;101225.00;;;-0.76;90.50
64053;BME280;50299;49.524;8.536;2023-01-26T00:26:25;101224.75;;;-0.63;91.54
64053;BME280;50299;49.524;8.536;2023-01-26T00:28:52;101210.97;;;-0.49;93.63
64053;BME280;50299;49.524;8.536;2023-01-26T00:31:24;101211.53;;;-0.59;89.61
64053;BME280;50299;49.524;8.536;2023-01-26T00:33:52;101211.91;;;-0.91;88.51
64053;BME280;50299;49.524;8.536;2023-01-26T00:36:19;101204.59;;;-1.09;87.20
64053;BME280;50299;49.524;8.536;2023-01-26T00:38:46;101201.66;;;-1.79;84.13
64053;BME280;50299;49.524;8.536;2023-01-26T00:41:12;101198.94;;;-2.53;84.23
64053;BME280;50299;49.524;8.536;2023-01-26T00:44:00;101201.16;;;-3.49;83.81
64053;BME280;50299;49.524;8.536;2023-01-26T00:46:26;101194.88;;;-3.75;87.14
64053;BME280;50299;49.524;8.536;2023-01-26T00:48:53;101195.59;;;-2.73;92.07
64053;BME280;50299;49.524;8.536;2023-01-26T00:51:19;101194.59;;;-1.98;93.70
64053;BME280;50299;49.524;8.536;2023-01-26T00:53:46;101189.78;;;-2.77;85.84
64053;BME280;50299;49.524;8.536;2023-01-26T00:56:12;101189.69;;;-3.13;88.27
64053;BME280;50299;49.524;8.536;2023-01-26T00:58:40;101194.47;;;-3.47;87.60
64053;BME280;50299;49.524;8.536;2023-01-26T01:01:07;101197.00;;;-3.45;88.47
64053;BME280;50299;49.524;8.536;2023-01-26T01:03:33;101184.13;;;-3.50;90.08
64053;BME280;50299;49.524;8.536;2023-01-26T01:06:03;101196.34;;;-3.79;87.37
64053;BME280;50299;49.524;8.536;2023-01-26T01:08:30;101192.41;;;-3.83;89.82
64053;BME280;50299;49.524;8.536;2023-01-26T01:11:07;101191.00;;;-3.22;92.81
64053;BME280;50299;49.524;8.536;2023-01-26T01:13:34;101192.94;;;-2.55;94.20
64053;BME280;50299;49.524;8.536;2023-01-26T01:16:07;101186.00;;;-2.32;92.26
64053;BME280;50299;49.524;8.536;2023-01-26T01:18:34;101185.81;;;-2.31;90.72
64053;BME280;50299;49.524;8.536;2023-01-26T01:21:14;101179.84;;;-2.39;90.66
64053;BME280;50299;49.524;8.536;2023-01-26T01:23:42;101173.53;;;-2.33;89.65
64053;BME280;50299;49.524;8.536;2023-01-26T01:26:12;101169.00;;;-2.03;93.24
64053;BME280;50299;49.524;8.536;2023-01-26T01:28:42;101180.00;;;-2.16;89.87
64053;BME280;50299;49.524;8.536;2023-01-26T01:31:14;101175.03;;;-2.19;90.65
64053;BME280;50299;49.524;8.536;2023-01-26T01:33:46;101193.94;;;-2.12;91.06
64053;BME280;50299;49.524;8.536;2023-01-26T01:36:15;101188.09;;;-2.53;87.91
64053;BME280;50299;49.524;8.536;2023-01-26T01:38:42;101180.44;;;-2.56;90.18
64053;BME280;50299;49.524;8.536;2023-01-26T01:41:10;101183.31;;;-2.50;88.90
64053;BME280;50299;49.524;8.536;2023-01-26T01:43:39;101185.69;;;-2.61;90.16
64053;BME280;50299;49.524;8.536;2023-01-26T01:46:34;101182.19;;;-2.24;92.01
64053;BME280;50299;49.524;8.536;2023-01-26T01:49:07;101181.38;;;-2.25;90.66
64053;BME280;50299;49.524;8.536;2023-01-26T01:51:42;101180.31;;;-2.42;89.33
64053;BME280;50299;49.524;8.536;2023-01-26T01:54:15;101184.91;;;-2.24;91.05
64053;BME280;50299;49.524;8.536;2023-01-26T01:56:48;101191.38;;;-2.25;90.81
64053;BME280;50299;49.524;8.536;2023-01-26T01:59:15;101184.75;;;-2.30;89.30
64053;BME280;50299;49.524;8.536;2023-01-26T02:01:53;101185.34;;;-2.28;89.91
64053;BME280;50299;49.524;8.536;2023-01-26T02:04:22;101175.28;;;-2.39;89.39
64053;BME280;50299;49.524;8.536;2023-01-26T02:06:52;101175.41;;;-2.15;92.38
64053;BME280;50299;49.524;8.536;2023-01-26T02:09:25;101182.91;;;-1.81;91.67
64053;BME280;50299;49.524;8.536;2023-01-26T02:12:13;101182.50;;;-1.36;94.74
64053;BME280;50299;49.524;8.536;2023-01-26T02:14:41;101171.56;;;-1.59;92.84
64053;BME280;50299;49.524;8.536;2023-01-26T02:17:08;101175.97;;;-1.46;91.81
64053;BME280;50299;49.524;8.536;2023-01-26T02:20:04;101187.69;;;-1.64;91.32
64053;BME280;50299;49.524;8.536;2023-01-26T02:28:03;101165.72;;;-1.74;91.44
64053;BME280;50299;49.524;8.536;2023-01-26T02:30:34;101168.28;;;-2.46;89.59
64053;BME280;50299;49.524;8.536;2023-01-26T02:33:00;101174.16;;;-1.83;93.73
64053;BME280;50299;49.524;8.536;2023-01-26T02:35:27;101169.75;;;-1.95;88.69
64053;BME280;50299;49.524;8.536;2023-01-26T02:37:53;101165.47;;;-2.03;89.82
64053;BME280;50299;49.524;8.536;2023-01-26T02:40:40;101164.97;;;-2.30;89.32
64053;BME280;50299;49.524;8.536;2023-01-26T02:43:10;101157.66;;;-2.11;91.66
64053;BME280;50299;49.524;8.536;2023-01-26T02:45:37;101165.13;;;-2.68;88.82
64053;BME280;50299;49.524;8.536;2023-01-26T02:48:06;101161.13;;;-2.59;90.90
64053;BME280;50299;49.524;8.536;2023-01-26T02:50:35;101162.06;;;-1.80;98.00
64053;BME280;50299;49.524;8.536;2023-01-26T02:53:02;101155.91;;;-3.04;88.91
64053;BME280;50299;49.524;8.536;2023-01-26T02:55:33;101156.34;;;-2.82;91.76
64053;BME280;50299;49.524;8.536;2023-01-26T02:58:03;101165.84;;;-2.36;93.53
64053;BME280;50299;49.524;8.536;2023-01-26T03:00:35;101158.03;;;-2.63;90.54
64053;BME280;50299;49.524;8.536;2023-01-26T03:03:13;101152.69;;;-2.94;92.22
64053;BME280;50299;49.524;8.536;2023-01-26T03:05:39;101151.59;;;-2.87;91.70
64053;BME280;50299;49.524;8.536;2023-01-26T03:08:07;101148.13;;;-3.19;90.48
64053;BME280;50299;49.524;8.536;2023-01-26T03:10:33;101137.41;;;-3.95;90.69
64053;BME280;50299;49.524;8.536;2023-01-26T03:13:00;101140.03;;;-3.82;92.57
64053;BME280;50299;49.524;8.536;2023-01-26T03:15:26;101143.53;;;-2.93;100.00
64053;BME280;50299;49.524;8.536;2023-01-26T03:18:15;101134.16;;;-4.11;93.27
64053;BME280;50299;49.524;8.536;2023-01-26T03:21:14;101126.66;;;-4.09;94.02
64053;BME280;50299;49.524;8.536;2023-01-26T03:24:00;101120.00;;;-4.13;95.18
64053;BME280;50299;49.524;8.536;2023-01-26T03:26:45;101112.63;;;-3.86;95.37
64053;BME280;50299;49.524;8.536;2023-01-26T03:29:32;101119.47;;;-3.83;95.52
64053;BME280;50299;49.524;8.536;2023-01-26T03:31:58;101122.16;;;-3.83;95.10
64053;BME280;50299;49.524;8.536;2023-01-26T03:34:26;101125.34;;;-3.61;96.71
64053;BME280;50299;49.524;8.536;2023-01-26T03:36:52;101124.41;;;-4.18;93.68
64053;BME280;50299;49.524;8.536;2023-01-26T03:39:19;101117.91;;;-4.49;94.40
64053;BME280;50299;49.524;8.536;2023-01-26T03:42:04;101116.94;;;-4.81;95.14
64053;BME280;50299;49.524;8.536;2023-01-26T03:44:49;101113.00;;;-4.98;95.61
64053;BME280;50299;49.524;8.536;2023-01-26T03:47:35;101105.59;;;-4.38;97.48
64053;BME280;50299;49.524;8.536;2023-01-26T03:50:20;101106.63;;;-3.31;100.00
64053;BME280;50299;49.524;8.536;2023-01-26T03:53:17;101097.19;;;-1.93;100.00
64053;BME280;50299;49.524;8.536;2023-01-26T03:56:03;101107.19;;;-0.98;100.00
64053;BME280;50299;49.524;8.536;2023-01-26T03:58:50;101109.66;;;-0.62;100.00
64053;BME280;50299;49.524;8.536;2023-01-26T04:01:21;101107.66;;;-0.66;100.00
64053;BME280;50299;49.524;8.536;2023-01-26T04:04:04;101098.06;;;-1.69;91.50
64053;BME280;50299;49.524;8.536;2023-01-26T04:06:54;101096.22;;;-1.57;94.34
64053;BME280;50299;49.524;8.536;2023-01-26T04:09:39;101096.91;;;-1.08;99.16
64053;BME280;50299;49.524;8.536;2023-01-26T04:12:08;101101.34;;;-1.79;90.93
64053;BME280;50299;49.524;8.536;2023-01-26T04:14:35;101103.41;;;-1.63;92.77
64053;BME280;50299;49.524;8.536;2023-01-26T04:17:20;101098.53;;;-2.33;87.92
64053;BME280;50299;49.524;8.536;2023-01-26T04:20:06;101102.75;;;-2.18;93.98
64053;BME280;50299;49.524;8.536;2023-01-26T04:22:51;101100.19;;;-2.32;92.97
64053;BME280;50299;49.524;8.536;2023-01-26T04:25:19;101100.03;;;-1.88;95.63
64053;BME280;50299;49.524;8.536;2023-01-26T04:27:46;101100.97;;;-1.41;97.18
64053;BME280;50299;49.524;8.536;2023-01-26T04:30:14;101100.66;;;-1.21;95.29
64053;BME280;50299;49.524;8.536;2023-01-26T04:32:41;101095.81;;;-1.31;93.91
64053;BME280;50299;49.524;8.536;2023-01-26T04:35:08;101086.06;;;-1.62;89.34
64053;BME280;50299;49.524;8.536;2023-01-26T04:37:38;101081.66;;;-1.33;94.09
64053;BME280;50299;49.524;8.536;2023-01-26T04:40:05;101082.69;;;-0.40;100.00
64053;BME280;50299;49.524;8.536;2023-01-26T04:42:32;101081.63;;;-0.10;99.84
64053;BME280;50299;49.524;8.536;2023-01-26T04:44:58;101072.66;;;-0.51;93.07
64053;BME280;50299;49.524;8.536;2023-01-26T04:47:25;101069.59;;;-0.55;92.87
64053;BME280;50299;49.524;8.536;2023-01-26T04:49:54;101064.88;;;-0.59;92.06
64053;BME280;50299;49.524;8.536;2023-01-26T04:52:23;101064.31;;;-0.49;95.54
64053;BME280;50299;49.524;8.536;2023-01-26T04:54:50;101060.19;;;-1.46;86.31
64053;BME280;50299;49.524;8.536;2023-01-26T04:57:16;101068.50;;;-1.71;88.25
64053;BME280;50299;49.524;8.536;2023-01-26T04:59:50;101054.00;;;-1.77;88.65
64053;BME280;50299;49.524;8.536;2023-01-26T05:02:16;101056.41;;;-1.33;94.12
64053;BME280;50299;49.524;8.536;2023-01-26T05:04:43;101052.78;;;-1.15;92.51
64053;BME280;50299;49.524;8.536;2023-01-26T05:07:15;101059.13;;;-1.33;90.83
64053;BME280;50299;49.524;8.536;2023-01-26T05:09:42;101052.66;;;-1.09;93.09
64053;BME280;50299;49.524;8.536;2023-01-26T05:12:08;101051.47;;;-0.66;96.89
64053;BME280;50299;49.524;8.536;2023-01-26T05:14:53;101055.50;;;0.01;100.00
64053;BME280;50299;49.524;8.536;2023-01-26T05:17:20;101052.81;;;-0.40;91.31
64053;BME280;50299;49.524;8.536;2023-01-26T05:19:47;101053.88;;;0.16;99.68
64053;BME280;50299;49.524;8.536;2023-01-26T05:22:14;101044.41;;;0.36;99.12
64053;BME280;50299;49.524;8.536;2023-01-26T05:24:40;101043.97;;;-0.18;89.09
64053;BME280;50299;49.524;8.536;2023-01-26T05:27:06;101040.56;;;-0.54;88.83
64053;BME280;50299;49.524;8.536;2023-01-26T05:29:50;101044.13;;;0.04;97.89
64053;BME280;50299;49.524;8.536;2023-01-26T05:32:17;101045.09;;;-0.31;90.38
64053;BME280;50299;49.524;8.536;2023-01-26T05:34:47;101044.81;;;-0.18;94.32
64053;BME280;50299;49.524;8.536;2023-01-26T05:37:13;101048.16;;;0.01;95.18
64053;BME280;50299;49.524;8.536;2023-01-26T05:39:41;101051.84;;;-0.74;86.24
64053;BME280;50299;49.524;8.536;2023-01-26T05:42:07;101050.72;;;0.08;100.00
64053;BME280;50299;49.524;8.536;2023-01-26T05:44:34;101059.31;;;-0.41;90.52
64053;BME280;50299;49.524;8.536;2023-01-26T05:47:00;101055.03;;;-0.37;94.60
64053;BME280;50299;49.524;8.536;2023-01-26T05:49:27;101063.47;;;0.07;97.25
64053;BME280;50299;49.524;8.536;2023-01-26T05:51:53;101064.25;;;-0.09;91.94
64053;BME280;50299;49.524;8.536;2023-01-26T05:54:19;101058.28;;;0.06;94.28
64053;BME280;50299;49.524;8.536;2023-01-26T05:56:46;101064.97;;;0.15;94.26
64053;BME280;50299;49.524;8.536;2023-01-26T05:59:14;101063.22;;;0.71;100.00
64053;BME280;50299;49.524;8.536;2023-01-26T06:01:40;101071.78;;;0.80;98.18
64053;BME280;50299;49.524;8.536;2023-01-26T06:04:07;101068.03;;;1.19;100.00
64053;BME280;50299;49.524;8.536;2023-01-26T06:06:55;101067.00;;;1.42;100.00
64053;BME280;50299;49.524;8.536;2023-01-26T06:09:22;101072.75;;;1.90;100.00
64053;BME280;50299;49.524;8.536;2023-01-26T06:11:52;101071.44;;;0.93;87.99
64053;BME280;50299;49.524;8.536;2023-01-26T06:14:19;101071.56;;;-0.38;82.13
64053;BME280;50299;49.524;8.536;2023-01-26T06:16:45;101074.13;;;-0.72;87.04
64053;BME280;50299;49.524;8.536;2023-01-26T06:19:12;101085.19;;;0.36;100.00
64053;BME280;50299;49.524;8.536;2023-01-26T06:21:38;101084.16;;;0.70;100.00
64053;BME280;50299;49.524;8.536;2023-01-26T06:24:05;101086.00;;;0.82;97.18
64053;BME280;50299;49.524;8.536;2023-01-26T06:26:35;101093.00;;;-0.65;82.77
64053;BME280;50299;49.524;8.536;2023-01-26T06:29:01;101094.56;;;-1.05;84.17
64053;BME280;50299;49.524;8.536;2023-01-26T06:31:31;101093.13;;;-1.19;87.45
64053;BME280;50299;49.524;8.536;2023-01-26T06:33:58;101091.81;;;-1.16;90.13
64053;BME280;50299;49.524;8.536;2023-01-26T06:36:24;101096.81;;;-0.26;99.22
64053;BME280;50299;49.524;8.536;2023-01-26T06:38:51;101093.88;;;0.04;98.12
64053;BME280;50299;49.524;8.536;2023-01-26T06:41:25;101095.16;;;0.13;94.40
64053;BME280;50299;49.524;8.536;2023-01-26T06:43:52;101088.56;;;-0.31;88.18
64053;BME280;50299;49.524;8.536;2023-01-26T06:46:19;101096.06;;;-1.20;84.72
64053;BME280;50299;49.524;8.536;2023-01-26T06:48:45;101090.38;;;-1.42;88.10
64053;BME280;50299;49.524;8.536;2023-01-26T06:54:03;101100.44;;;-1.73;87.51
64053;BME280;50299;49.524;8.536;2023-01-26T06:56:29;101096.81;;;-2.64;85.35
64053;BME280;50299;49.524;8.536;2023-01-26T06:58:58;101098.81;;;-2.96;89.76
64053;BME280;50299;49.524;8.536;2023-01-26T07:01:25;101092.75;;;-2.73;91.24
64053;BME280;50299;49.524;8.536;2023-01-26T07:03:52;101091.69;;;-2.35;93.23
64053;BME280;50299;49.524;8.536;2023-01-26T07:06:19;101092.00;;;-2.43;92.54
64053;BME280;50299;49.524;8.536;2023-01-26T07:08:46;101094.25;;;-2.40;95.52
64053;BME280;50299;49.524;8.536;2023-01-26T07:11:12;101099.78;;;-2.35;92.92
64053;BME280;50299;49.524;8.536;2023-01-26T07:13:42;101097.47;;;-2.13;95.23
64053;BME280;50299;49.524;8.536;2023-01-26T07:16:13;101091.91;;;-2.37;93.40
64053;BME280;50299;49.524;8.536;2023-01-26T07:18:40;101094.44;;;-2.23;93.80
64053;BME280;50299;49.524;8.536;2023-01-26T07:21:12;101097.75;;;-2.95;90.64
64053;BME280;50299;49.524;8.536;2023-01-26T07:23:39;101107.94;;;-2.54;94.00
64053;BME280;50299;49.524;8.536;2023-01-26T07:26:05;101101.16;;;-2.44;92.58
64053;BME280;50299;49.524;8.536;2023-01-26T07:28:32;101099.97;;;-2.30;94.97
64053;BME280;50299;49.524;8.536;2023-01-26T07:31:05;101105.66;;;-2.02;96.73
64053;BME280;50299;49.524;8.536;2023-01-26T07:33:33;101105.56;;;-2.43;92.45
64053;BME280;50299;49.524;8.536;2023-01-26T07:36:00;101096.25;;;-2.36;93.95
64053;BME280;50299;49.524;8.536;2023-01-26T07:38:27;101107.66;;;-2.45;94.21
64053;BME280;50299;49.524;8.536;2023-01-26T07:40:54;101102.66;;;-1.82;99.07
64053;BME280;50299;49.524;8.536;2023-01-26T07:43:21;101103.88;;;-1.66;96.87
64053;BME280;50299;49.524;8.536;2023-01-26T07:45:50;101111.75;;;-2.06;93.17
64053;BME280;50299;49.524;8.536;2023-01-26T07:48:18;101108.28;;;-2.13;93.12
64053;BME280;50299;49.524;8.536;2023-01-26T07:50:45;101112.50;;;-2.17;93.30
64053;BME280;50299;49.524;8.536;2023-01-26T07:53:13;101115.50;;;-2.99;89.09
64053;BME280;50299;49.524;8.536;2023-01-26T07:55:40;101108.53;;;-2.70;94.40
64053;BME280;50299;49.524;8.536;2023-01-26T07:58:10;101108.59;;;-2.77;93.57
64053;BME280;50299;49.524;8.536;2023-01-26T08:00:37;101116.38;;;-2.62;95.08
64053;BME280;50299;49.524;8.536;2023-01-26T08:03:05;101117.88;;;-2.47;94.84
64053;BME280;50299;49.524;8.536;2023-01-26T08:05:32;101118.66;;;-3.90;88.70
64053;BME280;50299;49.524;8.536;2023-01-26T08:07:59;101118.63;;;-3.27;95.30
64053;BME280;50299;49.524;8.536;2023-01-26T08:10:27;101110.72;;;-2.79;97.01
64053;BME280;50299;49.524;8.536;2023-01-26T08:13:00;101106.88;;;-2.53;95.86
64053;BME280;50299;49.524;8.536;2023-01-26T08:15:27;101113.13;;;-2.70;93.95
64053;BME280;50299;49.524;8.536;2023-01-26T08:17:54;101112.94;;;-2.94;93.62
64053;BME280;50299;49.524;8.536;2023-01-26T08:20:23;101113.16;;;-2.95;94.33
64053;BME280;50299;49.524;8.536;2023-01-26T08:22:50;101111.06;;;-2.93;95.24
64053;BME280;50299;49.524;8.536;2023-01-26T08:25:16;101116.34;;;-2.80;95.12
64053;BME280;50299;49.524;8.536;2023-01-26T08:27:45;101123.72;;;-1.84;100.00
64053;BME280;50299;49.524;8.536;2023-01-26T08:30:12;101117.81;;;-2.11;95.35
64053;BME280;50299;49.524;8.536;2023-01-26T08:32:39;101117.31;;;-2.01;94.53
64053;BME280;50299;49.524;8.536;2023-01-26T08:35:05;101121.13;;;-2.39;91.47
64053;BME280;50299;49.524;8.536;2023-01-26T08:37:32;101128.00;;;-2.06;95.00
64053;BME280;50299;49.524;8.536;2023-01-26T08:39:59;101126.81;;;-2.29;93.19
64053;BME280;50299;49.524;8.536;2023-01-26T08:42:25;101136.91;;;-2.97;89.14
64053;BME280;50299;49.524;8.536;2023-01-26T08:44:52;101145.16;;;-2.67;92.77
64053;BME280;50299;49.524;8.536;2023-01-26T08:47:18;101145.41;;;-3.19;90.37
64053;BME280;50299;49.524;8.536;2023-01-26T08:49:45;101141.63;;;-2.68;94.49
64053;BME280;50299;49.524;8.536;2023-01-26T08:52:11;101137.44;;;-2.89;92.80
64053;BME280;50299;49.524;8.536;2023-01-26T08:54:37;101132.88;;;-2.88;94.12
64053;BME280;50299;49.524;8.536;2023-01-26T08:57:04;101144.88;;;-2.41;97.23
64053;BME280;50299;49.524;8.536;2023-01-26T08:59:30;101134.56;;;-1.84;99.56
64053;BME280;50299;49.524;8.536;2023-01-26T09:01:59;101133.13;;;-2.71;93.07
64053;BME280;50299;49.524;8.536;2023-01-26T09:04:26;101137.88;;;-2.67;93.25
64053;BME280;50299;49.524;8.536;2023-01-26T09:06:53;101143.00;;;-2.59;93.77
64053;BME280;50299;49.524;8.536;2023-01-26T09:09:19;101141.59;;;-2.86;92.23
64053;BME280;50299;49.524;8.536;2023-01-26T09:11:45;101142.16;;;-3.28;92.36
64053;BME280;50299;49.524;8.536;2023-01-26T09:14:12;101140.72;;;-2.80;95.20
64053;BME280;50299;49.524;8.536;2023-01-26T09:16:38;101140.91;;;-3.25;93.13
64053;BME280;50299;49.524;8.536;2023-01-26T09:19:05;101137.31;;;-3.19;94.18
64053;BME280;50299;49.524;8.536;2023-01-26T09:21:31;101135.06;;;-2.23;99.78
64053;BME280;50299;49.524;8.536;2023-01-26T09:23:57;101139.81;;;-1.40;100.00
64053;BME280;50299;49.524;8.536;2023-01-26T09:26:24;101141.78;;;-1.47;96.93
64053;BME280;50299;49.524;8.536;2023-01-26T09:28:51;101139.13;;;-3.13;89.29
64053;BME280;50299;49.524;8.536;2023-01-26T09:31:18;101131.88;;;-3.44;90.32
64053;BME280;50299;49.524;8.536;2023-01-26T09:33:45;101148.22;;;-3.95;91.55
64053;BME280;50299;49.524;8.536;2023-01-26T09:36:15;101150.50;;;-4.64;92.19
64053;BME280;50299;49.524;8.536;2023-01-26T09:38:41;101143.38;;;-4.38;94.02
64053;BME280;50299;49.524;8.536;2023-01-26T09:41:26;101145.50;;;-3.57;97.00
64053;BME280;50299;49.524;8.536;2023-01-26T09:44:03;101140.34;;;-3.09;98.51
64053;BME280;50299;49.524;8.536;2023-01-26T09:49:48;101146.06;;;-2.98;94.71
64053;BME280;50299;49.524;8.536;2023-01-26T09:54:53;101133.44;;;-3.30;93.10
64053;BME280;50299;49.524;8.536;2023-01-26T09:57:25;101139.25;;;-1.91;100.00
64053;BME280;50299;49.524;8.536;2023-01-26T10:00:02;101136.94;;;-2.79;94.38
64053;BME280;50299;49.524;8.536;2023-01-26T10:02:45;101137.38;;;-2.82;91.36
64053;BME280;50299;49.524;8.536;2023-01-26T10:05:41;101131.81;;;-1.95;99.03
64053;BME280;50299;49.524;8.536;2023-01-26T10:08:12;101133.88;;;-1.37;98.75
64053;BME280;50299;49.524;8.536;2023-01-26T10:10:53;101129.56;;;-1.15;98.35
64053;BME280;50299;49.524;8.536;2023-01-26T10:13:21;101121.00;;;-1.54;93.45
64053;BME280;50299;49.524;8.536;2023-01-26T10:16:05;101120.41;;;-0.90;99.83
64053;BME280;50299;49.524;8.536;2023-01-26T10:21:08;101113.75;;;-0.36;99.88
64053;BME280;50299;49.524;8.536;2023-01-26T10:23:42;101124.53;;;-0.88;91.71
64053;BME280;50299;49.524;8.536;2023-01-26T10:26:14;101119.41;;;-1.31;92.46
64053;BME280;50299;49.524;8.536;2023-01-26T10:28:43;101114.84;;;-0.60;96.76
64053;BME280;50299;49.524;8.536;2023-01-26T10:31:19;101118.53;;;-0.78;93.06
64053;BME280;50299;49.524;8.536;2023-01-26T10:34:04;101120.38;;;-1.14;89.65
64053;BME280;50299;49.524;8.536;2023-01-26T10:36:35;101113.81;;;-0.83;94.83
64053;BME280;50299;49.524;8.536;2023-01-26T10:39:04;101109.66;;;-0.73;94.23
64053;BME280;50299;49.524;8.536;2023-01-26T10:41:31;101111.66;;;-0.45;95.29
64053;BME280;50299;49.524;8.536;2023-01-26T10:44:00;101110.28;;;-1.60;87.73
64053;BME280;50299;49.524;8.536;2023-01-26T10:46:38;101109.63;;;-1.32;92.43
64053;BME280;50299;49.524;8.536;2023-01-26T10:51:39;101098.75;;;-1.86;90.50
64053;BME280;50299;49.524;8.536;2023-01-26T10:56:49;101100.53;;;-1.80;91.00
64053;BME280;50299;49.524;8.536;2023-01-26T10:59:38;101105.16;;;-1.98;89.56
64053;BME280;50299;49.524;8.536;2023-01-26T11:04:38;101098.53;;;-1.84;90.33
64053;BME280;50299;49.524;8.536;2023-01-26T11:07:25;101093.19;;;-2.58;89.61
64053;BME280;50299;49.524;8.536;2023-01-26T11:09:53;101091.25;;;-2.50;91.31
64053;BME280;50299;49.524;8.536;2023-01-26T11:12:20;101090.19;;;-2.49;90.65
64053;BME280;50299;49.524;8.536;2023-01-26T11:15:05;101085.47;;;-2.54;91.41
64053;BME280;50299;49.524;8.536;2023-01-26T11:17:59;101079.38;;;-2.68;93.15
64053;BME280;50299;49.524;8.536;2023-01-26T11:23:13;101082.81;;;-2.79;92.09
64053;BME280;50299;49.524;8.536;2023-01-26T11:25:55;101080.91;;;-2.23;93.83
64053;BME280;50299;49.524;8.536;2023-01-26T11:28:57;101083.19;;;-2.39;90.95
64053;BME280;50299;49.524;8.536;2023-01-26T11:31:52;101082.22;;;-2.26;93.06
64053;BME280;50299;49.524;8.536;2023-01-26T11:40:42;101071.38;;;-2.44;95.63
64053;BME280;50299;49.524;8.536;2023-01-26T12:00:12;101048.41;;;-2.72;90.61
64053;BME280;50299;49.524;8.536;2023-01-26T12:03:02;101036.25;;;-3.24;88.03
64053;BME280;50299;49.524;8.536;2023-01-26T12:05:37;101038.38;;;-2.90;91.37
64053;BME280;50299;49.524;8.536;2023-01-26T12:08:15;101044.78;;;-2.66;90.29
64053;BME280;50299;49.524;8.536;2023-01-26T12:13:37;101040.63;;;-3.48;87.88
64053;BME280;50299;49.524;8.536;2023-01-26T12:16:15;101041.66;;;-3.24;88.24
64053;BME280;50299;49.524;8.536;2023-01-26T12:18:58;101031.69;;;-3.74;87.37
64053;BME280;50299;49.524;8.536;2023-01-26T12:21:42;101034.41;;;-2.69;94.06
64053;BME280;50299;49.524;8.536;2023-01-26T12:24:14;101035.50;;;-3.57;85.78
64053;BME280;50299;49.524;8.536;2023-01-26T12:27:15;101031.47;;;-4.36;84.21
64053;BME280;50299;49.524;8.536;2023-01-26T12:32:14;101025.81;;;-3.71;84.73
64053;BME280;50299;49.524;8.536;2023-01-26T12:34:42;101020.16;;;-3.63;75.30
64053;BME280;50299;49.524;8.536;2023-01-26T12:37:40;101022.69;;;-3.68;73.34
64053;BME280;50299;49.524;8.536;2023-01-26T12:43:29;101014.94;;;-2.96;85.44
64053;BME280;50299;49.524;8.536;2023-01-26T12:45:55;101003.56;;;-2.49;82.31
64053;BME280;50299;49.524;8.536;2023-01-26T12:51:19;101007.84;;;-2.42;77.26
64053;BME280;50299;49.524;8.536;2023-01-26T12:53:56;101000.44;;;-2.05;75.63
64053;BME280;50299;49.524;8.536;2023-01-26T12:56:34;100994.41;;;-2.07;76.40
64053;BME280;50299;49.524;8.536;2023-01-26T12:59:25;100994.22;;;-2.23;75.09
64053;BME280;50299;49.524;8.536;2023-01-26T13:04:46;100996.97;;;-1.82;79.16
64053;BME280;50299;49.524;8.536;2023-01-26T13:07:36;100999.91;;;-1.60;77.23
64053;BME280;50299;49.524;8.536;2023-01-26T13:10:20;100989.91;;;-1.47;80.55
64053;BME280;50299;49.524;8.536;2023-01-26T13:15:30;100989.63;;;-1.69;69.02
64053;BME280;50299;49.524;8.536;2023-01-26T13:18:01;101000.38;;;-1.63;66.12
64053;BME280;50299;49.524;8.536;2023-01-26T13:20:47;100992.97;;;-1.56;71.86
64053;BME280;50299;49.524;8.536;2023-01-26T13:23:37;100983.19;;;-0.98;74.94
64053;BME280;50299;49.524;8.536;2023-01-26T13:28:45;101001.69;;;-2.07;68.94
64053;BME280;50299;49.524;8.536;2023-01-26T13:31:12;101000.03;;;-1.66;69.53
64053;BME280;50299;49.524;8.536;2023-01-26T13:33:54;100993.03;;;-3.31;72.84
64053;BME280;50299;49.524;8.536;2023-01-26T13:36:22;100983.47;;;-3.52;76.01
64053;BME280;50299;49.524;8.536;2023-01-26T13:39:00;100992.09;;;-2.82;71.84
64053;BME280;50299;49.524;8.536;2023-01-26T13:41:28;100987.69;;;-4.13;69.88
64053;BME280;50299;49.524;8.536;2023-01-26T13:44:03;100988.94;;;-3.84;78.44
64053;BME280;50299;49.524;8.536;2023-01-26T13:46:42;100996.13;;;-2.72;88.45
64053;BME280;50299;49.524;8.536;2023-01-26T13:49:38;100995.66;;;-2.21;76.49
64053;BME280;50299;49.524;8.536;2023-01-26T13:52:23;100991.34;;;-2.89;66.50
64053;BME280;50299;49.524;8.536;2023-01-26T13:54:52;100994.72;;;-2.75;70.16
64053;BME280;50299;49.524;8.536;2023-01-26T13:57:28;100987.66;;;-2.94;72.42
64053;BME280;50299;49.524;8.536;2023-01-26T13:59:56;100990.50;;;-3.69;66.82
64053;BME280;50299;49.524;8.536;2023-01-26T14:02:29;100994.94;;;-2.77;74.71
64053;BME280;50299;49.524;8.536;2023-01-26T14:04:57;100999.66;;;-3.27;68.92
64053;BME280;50299;49.524;8.536;2023-01-26T14:07:31;100999.53;;;-2.95;70.40
64053;BME280;50299;49.524;8.536;2023-01-26T14:10:00;101001.19;;;-2.76;69.59
64053;BME280;50299;49.524;8.536;2023-01-26T14:12:33;101000.31;;;-2.88;66.44
64053;BME280;50299;49.524;8.536;2023-01-26T14:15:05;101003.47;;;-2.43;77.13
64053;BME280;50299;49.524;8.536;2023-01-26T14:17:34;101007.19;;;-2.25;74.48
64053;BME280;50299;49.524;8.536;2023-01-26T14:20:17;101006.44;;;-2.03;65.50
64053;BME280;50299;49.524;8.536;2023-01-26T14:25:55;101013.81;;;-2.21;67.79
64053;BME280;50299;49.524;8.536;2023-01-26T14:28:26;101008.00;;;-2.25;71.23